createdAt,value
2023-01-13T00:00:48.450Z,10.30
2023-01-13T00:05:50.237Z,10.20
2023-01-13T00:10:51.988Z,10.10
2023-01-13T00:15:58.767Z,10.20
2023-01-13T00:21:12.579Z,10.20
2023-01-13T00:26:20.448Z,10.10
2023-01-13T00:31:22.290Z,10.10
2023-01-13T00:36:24.090Z,10.10
2023-01-13T00:41:26.858Z,10.10
2023-01-13T00:46:28.693Z,10.10
2023-01-13T00:51:30.500Z,9.90
2023-01-13T00:56:40.271Z,10.00
2023-01-13T01:01:43.026Z,9.90
2023-01-13T01:06:44.940Z,10.00
2023-01-13T01:11:46.748Z,9.80
2023-01-13T01:16:48.502Z,9.80
2023-01-13T01:21:50.339Z,9.80
2023-01-13T01:26:52.164Z,9.70
2023-01-13T01:31:54.049Z,9.60
2023-01-13T01:36:55.793Z,9.60
2023-01-13T01:42:16.022Z,9.40
2023-01-13T01:47:19.075Z,9.40
2023-01-13T01:52:32.140Z,9.30
2023-01-13T01:57:46.896Z,9.20
2023-01-13T02:02:50.769Z,9.20
2023-01-13T02:07:54.496Z,9.10
2023-01-13T02:13:04.822Z,9.00
2023-01-13T02:18:30.768Z,9.10
2023-01-13T02:24:29.037Z,9.00
2023-01-13T02:30:08.545Z,8.90
2023-01-13T02:35:28.084Z,8.90
2023-01-13T02:40:35.777Z,8.80
2023-01-13T02:45:43.618Z,8.80
2023-01-13T02:50:56.238Z,8.80
2023-01-13T02:56:00.166Z,8.80
2023-01-13T03:01:02.207Z,8.80
2023-01-13T03:06:36.823Z,8.90
2023-01-13T03:12:10.498Z,8.90
2023-01-13T03:17:18.482Z,8.90
2023-01-13T03:22:38.489Z,9.00
2023-01-13T03:28:08.642Z,9.00
2023-01-13T03:33:16.970Z,9.10
2023-01-13T03:38:28.728Z,9.10
2023-01-13T03:44:00.079Z,9.10
2023-01-13T03:49:04.555Z,9.20
2023-01-13T03:54:11.468Z,9.20
2023-01-13T03:59:18.763Z,9.20
2023-01-13T04:04:29.645Z,9.20
2023-01-13T04:09:36.731Z,9.30
2023-01-13T04:14:39.872Z,9.30
2023-01-13T04:19:41.631Z,9.30
2023-01-13T04:24:43.411Z,9.30
2023-01-13T04:29:46.344Z,9.30
2023-01-13T04:34:48.173Z,9.30
2023-01-13T04:39:49.974Z,9.20
2023-01-13T04:44:51.805Z,9.20
2023-01-13T04:49:53.570Z,9.20
2023-01-13T04:54:55.359Z,9.20
2023-01-13T04:59:57.124Z,9.20
2023-01-13T05:04:59.259Z,9.20
2023-01-13T05:10:01.149Z,9.20
2023-01-13T05:15:21.967Z,9.20
2023-01-13T05:20:23.979Z,9.10
2023-01-13T05:25:27.355Z,9.10
2023-01-13T05:30:33.642Z,9.00
2023-01-13T05:35:37.959Z,8.90
2023-01-13T05:40:59.704Z,8.90
2023-01-13T05:46:09.890Z,8.80
2023-01-13T05:51:13.118Z,8.80
2023-01-13T05:56:17.366Z,8.60
2023-01-13T06:01:19.185Z,8.60
2023-01-13T06:06:21.018Z,8.60
2023-01-13T06:11:22.797Z,8.70
2023-01-13T06:16:24.625Z,8.60
2023-01-13T06:21:26.629Z,8.80
2023-01-13T06:26:31.913Z,8.60
2023-01-13T06:31:38.588Z,8.60
2023-01-13T06:36:52.257Z,8.60
2023-01-13T06:42:13.558Z,8.50
2023-01-13T06:47:15.374Z,8.60
2023-01-13T06:52:17.233Z,8.50
2023-01-13T06:57:19.011Z,8.40
2023-01-13T07:02:21.012Z,8.40
2023-01-13T07:07:23.006Z,8.40
2023-01-13T07:12:24.940Z,8.50
2023-01-13T07:17:26.755Z,8.50
2023-01-13T07:22:28.610Z,8.40
2023-01-13T07:27:30.443Z,8.40
2023-01-13T07:32:33.692Z,8.40
2023-01-13T07:37:37.736Z,8.40
2023-01-13T07:42:58.317Z,8.40
2023-01-13T07:48:00.104Z,8.30
2023-01-13T07:53:02.083Z,8.30
2023-01-13T07:58:03.964Z,8.20
2023-01-13T08:03:06.182Z,8.20
2023-01-13T08:08:08.378Z,8.20
2023-01-13T08:13:22.860Z,8.20
2023-01-13T08:18:24.837Z,8.20
2023-01-13T08:23:26.705Z,8.20
2023-01-13T08:28:28.628Z,8.30
2023-01-13T08:33:30.893Z,8.40
2023-01-13T08:38:34.502Z,8.40
2023-01-13T08:43:36.415Z,8.50
2023-01-13T08:48:38.338Z,8.60
2023-01-13T08:53:40.221Z,8.60
2023-01-13T08:58:42.040Z,8.70
2023-01-13T09:03:44.122Z,8.70
2023-01-13T09:08:46.210Z,8.80
2023-01-13T09:13:48.055Z,8.90
2023-01-13T09:18:49.840Z,8.90
2023-01-13T09:23:51.639Z,9.00
2023-01-13T09:28:53.436Z,9.00
2023-01-13T09:34:13.845Z,9.10
2023-01-13T09:39:16.445Z,9.20
2023-01-13T09:44:25.882Z,9.20
2023-01-13T09:49:37.762Z,9.30
2023-01-13T09:54:45.285Z,9.40
2023-01-13T09:59:48.112Z,9.40
2023-01-13T10:05:03.356Z,9.40
2023-01-13T10:10:12.510Z,9.50
2023-01-13T10:15:24.206Z,9.50
2023-01-13T10:20:45.219Z,9.50
2023-01-13T10:26:02.120Z,9.50
2023-01-13T10:31:15.083Z,9.50
2023-01-13T10:36:21.541Z,9.50
2023-01-13T10:41:27.904Z,9.60
2023-01-13T10:46:31.882Z,9.60
2023-01-13T10:51:39.868Z,9.60
2023-01-13T10:56:44.709Z,9.70
2023-01-13T11:01:53.949Z,9.60
2023-01-13T11:06:56.717Z,9.50
2023-01-13T11:12:00.167Z,9.40
2023-01-13T11:17:25.891Z,9.20
2023-01-13T11:22:37.475Z,9.10
2023-01-13T11:27:56.294Z,9.00
2023-01-13T11:33:10.788Z,9.00
2023-01-13T11:38:49.990Z,9.00
2023-01-13T11:44:17.162Z,9.00
2023-01-13T11:49:38.466Z,9.10
2023-01-13T11:55:15.917Z,9.10
2023-01-13T12:00:22.330Z,9.10
2023-01-13T12:05:38.177Z,9.10
2023-01-13T12:10:49.001Z,9.20
2023-01-13T12:16:13.965Z,9.20
2023-01-13T12:21:23.187Z,9.20
2023-01-13T12:26:25.114Z,9.30
2023-01-13T12:31:28.478Z,9.30
2023-01-13T12:36:52.316Z,9.40
2023-01-13T12:42:26.701Z,9.60
2023-01-13T12:47:40.185Z,9.60
2023-01-13T12:52:45.706Z,9.70
2023-01-13T12:58:05.574Z,9.70
2023-01-13T13:03:19.652Z,9.60
2023-01-13T13:08:35.506Z,9.50
2023-01-13T13:13:47.300Z,9.50
2023-01-13T13:18:50.335Z,9.50
2023-01-13T13:23:55.181Z,9.30
2023-01-13T13:29:29.685Z,9.40
2023-01-13T13:34:55.680Z,9.30
2023-01-13T13:40:16.096Z,9.30
2023-01-13T13:45:40.065Z,9.40
2023-01-13T13:50:49.168Z,9.60
2023-01-13T13:56:02.407Z,9.60
2023-01-13T14:01:05.382Z,9.60
2023-01-13T14:06:07.907Z,9.70
2023-01-13T14:11:32.347Z,9.70
2023-01-13T14:16:36.279Z,9.80
2023-01-13T14:21:38.755Z,9.80
2023-01-13T14:26:40.687Z,9.80
2023-01-13T14:31:43.542Z,9.80
2023-01-13T14:36:50.951Z,9.90
2023-01-13T14:41:53.614Z,9.90
2023-01-13T14:46:58.340Z,9.90
2023-01-13T14:52:16.229Z,9.90
2023-01-13T14:57:25.943Z,10.00
2023-01-13T15:02:31.080Z,10.00
2023-01-13T15:07:33.392Z,9.90
2023-01-13T15:12:41.451Z,9.90
2023-01-13T15:17:43.393Z,9.80
2023-01-13T15:22:45.990Z,9.90
2023-01-13T15:27:51.050Z,9.90
2023-01-13T15:32:55.193Z,9.80
2023-01-13T15:37:57.786Z,9.80
2023-01-13T15:43:18.527Z,9.90
2023-01-13T15:48:21.769Z,9.90
2023-01-13T15:53:23.788Z,9.80
2023-01-13T15:58:28.502Z,9.70
2023-01-13T16:03:30.618Z,9.70
2023-01-13T16:08:34.744Z,9.70
2023-01-13T16:13:37.121Z,9.50
2023-01-13T16:18:38.946Z,9.60
2023-01-13T16:23:41.321Z,9.50
2023-01-13T16:28:43.090Z,9.60
2023-01-13T16:33:45.036Z,9.50
2023-01-13T16:38:47.986Z,9.30
2023-01-13T16:43:49.817Z,9.40
2023-01-13T16:48:56.606Z,9.40
2023-01-13T16:53:58.375Z,9.40
2023-01-13T16:59:08.337Z,9.40
2023-01-13T17:04:16.622Z,9.40
2023-01-13T17:09:20.946Z,9.30
2023-01-13T17:14:23.634Z,9.20
2023-01-13T17:19:25.940Z,9.10
2023-01-13T17:24:30.932Z,9.10
2023-01-13T17:29:32.958Z,9.00
2023-01-13T17:34:34.758Z,9.00
2023-01-13T17:39:36.625Z,9.00
2023-01-13T17:44:39.409Z,8.90
2023-01-13T17:49:41.172Z,8.90
2023-01-13T17:54:43.840Z,9.00
2023-01-13T17:59:47.942Z,9.00
2023-01-13T18:04:49.741Z,9.00
2023-01-13T18:09:51.650Z,9.00
2023-01-13T18:14:53.472Z,9.00
2023-01-13T18:20:13.891Z,9.10
2023-01-13T18:25:34.538Z,9.00
2023-01-13T18:30:36.782Z,9.00
2023-01-13T18:35:39.862Z,8.90
2023-01-13T18:40:45.482Z,8.90
2023-01-13T18:45:51.636Z,9.00
2023-01-13T18:50:53.974Z,9.00
2023-01-13T18:55:55.934Z,9.00
2023-01-13T19:01:05.287Z,9.00
2023-01-13T19:06:11.793Z,9.00
2023-01-13T19:11:14.059Z,9.10
2023-01-13T19:16:17.888Z,9.00
2023-01-13T19:21:20.782Z,9.00
2023-01-13T19:26:22.612Z,9.00
2023-01-13T19:31:24.482Z,9.00
2023-01-13T19:36:27.067Z,9.00
2023-01-13T19:41:47.416Z,8.90
2023-01-13T19:46:49.422Z,8.90
2023-01-13T19:51:51.487Z,9.00
2023-01-13T19:56:53.582Z,8.90
2023-01-13T20:01:57.273Z,8.80
2023-01-13T20:06:59.974Z,8.70
2023-01-13T20:12:09.249Z,8.70
2023-01-13T20:17:16.179Z,8.70
2023-01-13T20:22:18.023Z,8.60
2023-01-13T20:27:19.766Z,8.60
2023-01-13T20:32:21.656Z,8.60
2023-01-13T20:37:23.577Z,8.60
2023-01-13T20:42:51.755Z,8.60
2023-01-13T20:47:54.491Z,8.60
2023-01-13T20:52:56.415Z,8.60
2023-01-13T20:57:58.159Z,8.60
2023-01-13T21:03:00.018Z,8.60
2023-01-13T21:08:01.845Z,8.60
2023-01-13T21:13:22.205Z,8.60
2023-01-13T21:18:42.786Z,8.50
2023-01-13T21:23:47.163Z,8.50
2023-01-13T21:28:50.065Z,8.40
2023-01-13T21:33:59.622Z,8.50
2023-01-13T21:39:01.521Z,8.40
2023-01-13T21:44:21.869Z,8.40
2023-01-13T21:49:23.814Z,8.40
2023-01-13T21:54:25.844Z,8.30
2023-01-13T21:59:27.652Z,8.30
2023-01-13T22:04:30.490Z,8.30
2023-01-13T22:09:32.370Z,8.20
2023-01-13T22:14:35.355Z,8.20
2023-01-13T22:19:39.443Z,8.20
2023-01-13T22:24:46.351Z,8.20
2023-01-13T22:29:49.609Z,8.20
2023-01-13T22:34:51.495Z,8.20
2023-01-13T22:39:53.284Z,8.10
2023-01-13T22:44:55.157Z,8.10
2023-01-13T22:49:56.964Z,8.00
2023-01-13T22:55:00.852Z,8.00
2023-01-13T23:00:03.444Z,8.00
2023-01-13T23:05:05.711Z,8.00
2023-01-13T23:10:07.830Z,7.90
2023-01-13T23:15:10.027Z,7.90
2023-01-13T23:20:12.092Z,7.80
2023-01-13T23:25:13.975Z,7.80
2023-01-13T23:30:16.344Z,7.70
2023-01-13T23:35:18.150Z,7.80
2023-01-13T23:40:19.939Z,7.70
2023-01-13T23:45:22.091Z,7.80
2023-01-13T23:50:25.106Z,7.70
2023-01-13T23:55:27.096Z,7.70
